createdAt,value
2019-06-07T00:00:39.406Z,21.80
2019-06-07T00:03:27.450Z,21.80
2019-06-07T00:06:15.108Z,21.80
2019-06-07T00:09:01.227Z,21.70
2019-06-07T00:11:49.832Z,21.70
2019-06-07T00:14:38.196Z,21.70
2019-06-07T00:17:26.692Z,21.70
2019-06-07T00:20:19.475Z,21.70
2019-06-07T00:23:05.666Z,21.70
2019-06-07T00:25:53.848Z,21.70
2019-06-07T00:28:42.102Z,21.70
2019-06-07T00:31:30.520Z,21.60
2019-06-07T00:34:20.045Z,21.60
2019-06-07T00:37:11.131Z,21.60
2019-06-07T00:40:14.081Z,21.60
2019-06-07T00:42:48.616Z,21.60
2019-06-07T00:45:37.197Z,21.60
2019-06-07T00:48:32.101Z,21.60
2019-06-07T00:51:17.244Z,21.50
2019-06-07T00:54:05.439Z,21.50
2019-06-07T00:56:54.306Z,21.50
2019-06-07T00:59:42.874Z,21.50
2019-06-07T01:02:31.837Z,21.50
2019-06-07T01:05:26.193Z,21.50
2019-06-07T01:08:10.539Z,21.50
2019-06-07T01:10:58.984Z,21.50
2019-06-07T01:13:47.170Z,21.40
2019-06-07T01:16:55.734Z,21.50
2019-06-07T01:19:27.767Z,21.40
2019-06-07T01:22:17.828Z,21.50
2019-06-07T01:25:08.562Z,21.40
2019-06-07T01:27:56.832Z,21.40
2019-06-07T01:30:45.447Z,21.40
2019-06-07T01:33:50.257Z,21.40
2019-06-07T01:36:25.231Z,21.40
2019-06-07T01:39:13.278Z,21.40
2019-06-07T01:42:01.370Z,21.30
2019-06-07T01:44:50.164Z,21.30
2019-06-07T01:47:38.623Z,21.30
2019-06-07T01:50:27.163Z,21.30
2019-06-07T01:53:15.260Z,21.30
2019-06-07T01:56:03.628Z,21.30
2019-06-07T01:58:51.670Z,21.30
2019-06-07T02:01:40.267Z,21.30
2019-06-07T02:04:32.416Z,21.30
2019-06-07T02:07:20.401Z,21.20
2019-06-07T02:10:08.747Z,21.20
2019-06-07T02:12:57.483Z,21.20
2019-06-07T02:15:46.127Z,21.20
2019-06-07T02:18:35.154Z,21.20
2019-06-07T02:21:26.003Z,21.20
2019-06-07T02:24:13.859Z,21.20
2019-06-07T02:27:02.509Z,21.20
2019-06-07T02:29:50.794Z,21.20
2019-06-07T02:32:39.479Z,21.20
2019-06-07T02:35:34.758Z,21.20
2019-06-07T02:38:18.074Z,21.10
2019-06-07T02:41:06.841Z,21.10
2019-06-07T02:43:55.697Z,21.10
2019-06-07T02:46:49.167Z,21.10
2019-06-07T02:49:40.519Z,21.10
2019-06-07T02:52:27.243Z,21.10
2019-06-07T02:55:15.077Z,21.10
2019-06-07T02:58:03.738Z,21.00
2019-06-07T03:01:06.843Z,21.00
2019-06-07T03:03:42.435Z,21.00
2019-06-07T03:06:35.905Z,21.00
2019-06-07T03:09:22.327Z,21.00
2019-06-07T03:12:14.332Z,21.00
2019-06-07T03:15:03.391Z,21.00
2019-06-07T03:18:00.702Z,21.00
2019-06-07T03:21:04.659Z,21.00
2019-06-07T03:23:41.380Z,21.00
2019-06-07T03:26:34.850Z,20.90
2019-06-07T03:29:19.937Z,20.90
2019-06-07T03:32:08.485Z,20.90
2019-06-07T03:34:56.576Z,20.90
2019-06-07T03:37:44.823Z,20.90
2019-06-07T03:40:37.740Z,20.90
2019-06-07T03:43:23.534Z,20.90
2019-06-07T03:46:11.962Z,20.90
2019-06-07T03:49:00.521Z,20.80
2019-06-07T03:51:48.877Z,20.80
2019-06-07T03:54:39.767Z,20.80
2019-06-07T03:57:28.732Z,20.80
2019-06-07T04:00:17.220Z,20.80
2019-06-07T04:03:05.951Z,20.80
2019-06-07T04:05:53.948Z,20.80
2019-06-07T04:08:42.433Z,20.80
2019-06-07T04:11:30.688Z,20.80
2019-06-07T04:14:20.695Z,20.80
2019-06-07T04:17:09.287Z,20.80
2019-06-07T04:19:57.734Z,20.80
2019-06-07T04:22:46.203Z,20.80
2019-06-07T04:25:37.155Z,20.70
2019-06-07T04:29:15.592Z,20.70
2019-06-07T04:31:14.900Z,20.70
2019-06-07T04:34:03.336Z,20.70
2019-06-07T04:36:58.940Z,20.70
2019-06-07T04:39:45.613Z,20.70
2019-06-07T04:42:39.165Z,20.70
2019-06-07T04:45:37.369Z,20.70
2019-06-07T04:48:21.299Z,20.70
2019-06-07T04:51:10.325Z,20.70
2019-06-07T04:53:58.405Z,20.70
2019-06-07T04:56:46.701Z,20.60
2019-06-07T05:00:10.955Z,20.60
2019-06-07T05:02:25.209Z,20.60
2019-06-07T05:05:13.801Z,20.60
2019-06-07T05:08:07.474Z,20.60
2019-06-07T05:10:52.393Z,20.60
2019-06-07T05:13:43.839Z,20.60
2019-06-07T05:16:35.193Z,20.60
2019-06-07T05:19:21.231Z,20.60
2019-06-07T05:22:09.567Z,20.60
2019-06-07T05:24:57.995Z,20.60
2019-06-07T05:27:46.926Z,20.60
2019-06-07T05:33:31.146Z,20.60
2019-06-07T05:36:20.410Z,20.60
2019-06-07T05:39:09.140Z,20.60
2019-06-07T05:41:57.684Z,20.60
2019-06-07T05:44:46.025Z,20.60
2019-06-07T05:47:39.981Z,20.60
2019-06-07T05:50:39.215Z,20.60
2019-06-07T05:53:14.133Z,20.70
2019-06-07T05:56:02.660Z,20.70
2019-06-07T05:58:51.302Z,20.70
2019-06-07T06:01:52.370Z,20.80
2019-06-07T06:04:29.820Z,20.80
2019-06-07T06:07:18.524Z,20.90
2019-06-07T06:10:08.936Z,20.90
2019-06-07T06:12:57.550Z,21.00
2019-06-07T06:16:00.621Z,21.10
2019-06-07T06:18:38.049Z,21.20
2019-06-07T06:21:26.932Z,21.30
2019-06-07T06:24:15.437Z,21.30
2019-06-07T06:27:18.936Z,21.40
2019-06-07T06:29:53.909Z,21.40
2019-06-07T06:32:51.080Z,21.50
2019-06-07T06:35:33.440Z,21.50
2019-06-07T06:38:21.924Z,21.60
2019-06-07T06:41:15.834Z,21.60
2019-06-07T06:44:00.678Z,21.70
2019-06-07T06:46:57.179Z,21.80
2019-06-07T06:49:41.420Z,21.80
2019-06-07T06:52:29.808Z,21.90
2019-06-07T06:55:18.373Z,22.10
2019-06-07T06:58:06.745Z,22.20
2019-06-07T07:01:05.724Z,22.20
2019-06-07T07:04:06.221Z,22.30
2019-06-07T07:06:35.893Z,22.40
2019-06-07T07:09:25.028Z,22.50
2019-06-07T07:12:15.092Z,22.60
2019-06-07T07:15:08.430Z,22.70
2019-06-07T07:18:07.828Z,22.70
2019-06-07T07:20:48.316Z,22.90
2019-06-07T07:23:36.315Z,22.90
2019-06-07T07:26:24.916Z,23.00
2019-06-07T07:29:13.464Z,23.10
2019-06-07T07:32:01.737Z,23.10
2019-06-07T07:34:54.332Z,23.20
2019-06-07T07:37:40.060Z,23.20
2019-06-07T07:40:56.834Z,23.20
2019-06-07T07:43:17.987Z,23.30
2019-06-07T07:46:28.501Z,23.30
2019-06-07T07:48:56.523Z,23.20
2019-06-07T07:51:46.315Z,23.10
2019-06-07T07:54:34.991Z,23.10
2019-06-07T07:57:23.109Z,23.10
2019-06-07T08:00:48.517Z,23.00
2019-06-07T08:03:04.346Z,23.10
2019-06-07T08:05:54.350Z,23.10
2019-06-07T08:08:41.739Z,23.00
2019-06-07T08:11:30.314Z,23.00
2019-06-07T08:14:18.519Z,23.10
2019-06-07T08:17:06.665Z,23.00
2019-06-07T08:19:57.316Z,23.10
2019-06-07T08:22:44.876Z,23.20
2019-06-07T08:25:33.401Z,23.30
2019-06-07T08:28:21.570Z,23.40
2019-06-07T08:31:10.053Z,23.60
2019-06-07T08:34:00.664Z,23.70
2019-06-07T08:36:49.977Z,23.70
2019-06-07T08:39:38.980Z,23.70
2019-06-07T08:42:36.945Z,23.80
2019-06-07T08:45:18.002Z,23.80
2019-06-07T08:48:26.589Z,24.00
2019-06-07T08:51:02.214Z,24.00
2019-06-07T08:54:02.850Z,24.10
2019-06-07T08:56:38.138Z,24.10
2019-06-07T08:59:26.266Z,24.10
2019-06-07T09:02:23.645Z,24.20
2019-06-07T09:05:12.248Z,24.20
2019-06-07T09:08:21.744Z,24.30
2019-06-07T09:10:46.764Z,24.30
2019-06-07T09:13:35.337Z,24.30
2019-06-07T09:16:23.591Z,24.30
2019-06-07T09:19:11.961Z,24.30
2019-06-07T09:22:03.364Z,24.30
2019-06-07T09:24:51.027Z,24.40
2019-06-07T09:27:39.431Z,24.40
2019-06-07T09:30:41.592Z,24.40
2019-06-07T09:33:29.776Z,24.40
2019-06-07T09:36:17.942Z,24.40
2019-06-07T09:39:11.799Z,24.30
2019-06-07T09:41:58.685Z,24.30
2019-06-07T09:44:47.422Z,24.20
2019-06-07T09:47:36.025Z,24.10
2019-06-07T09:50:24.826Z,24.10
2019-06-07T09:53:21.745Z,24.10
2019-06-07T09:56:08.333Z,24.10
2019-06-07T09:58:54.221Z,24.00
2019-06-07T10:01:43.315Z,24.00
2019-06-07T10:04:31.764Z,23.90
2019-06-07T10:07:31.191Z,23.90
2019-06-07T10:13:01.670Z,24.00
2019-06-07T10:15:53.011Z,24.00
2019-06-07T10:18:40.141Z,24.00
2019-06-07T10:21:28.418Z,23.90
2019-06-07T10:24:16.917Z,23.90
2019-06-07T10:27:06.026Z,23.70
2019-06-07T10:29:57.527Z,23.40
2019-06-07T10:32:46.063Z,23.30
2019-06-07T10:35:35.154Z,23.20
2019-06-07T10:38:23.752Z,23.00
2019-06-07T10:41:12.035Z,23.00
2019-06-07T10:44:01.029Z,22.80
2019-06-07T10:46:49.432Z,22.80
2019-06-07T10:49:37.920Z,22.70
2019-06-07T10:52:26.165Z,22.60
2019-06-07T10:55:15.293Z,22.60
2019-06-07T10:58:04.729Z,22.50
2019-06-07T11:00:53.067Z,22.50
2019-06-07T11:03:41.270Z,22.40
2019-06-07T11:06:29.621Z,22.40
2019-06-07T11:09:17.783Z,22.30
2019-06-07T11:12:06.402Z,22.20
2019-06-07T11:14:55.087Z,22.20
2019-06-07T11:17:43.216Z,22.20
2019-06-07T11:20:31.639Z,22.10
2019-06-07T11:23:20.046Z,22.10
2019-06-07T11:26:08.451Z,22.20
2019-06-07T11:28:56.695Z,22.20
2019-06-07T11:31:47.516Z,22.10
2019-06-07T11:34:35.423Z,22.10
2019-06-07T11:37:23.759Z,22.10
2019-06-07T11:40:35.108Z,22.00
2019-06-07T11:43:02.760Z,22.00
2019-06-07T11:45:51.351Z,21.90
2019-06-07T11:48:40.019Z,21.80
2019-06-07T11:51:28.401Z,21.80
2019-06-07T11:54:20.418Z,21.80
2019-06-07T11:57:07.221Z,21.70
2019-06-07T11:59:55.423Z,21.70
2019-06-07T12:02:43.776Z,21.70
2019-06-07T12:05:32.147Z,21.70
2019-06-07T12:08:20.436Z,21.60
2019-06-07T12:11:10.034Z,21.60
2019-06-07T12:13:59.986Z,21.60
2019-06-07T12:16:48.435Z,21.60
2019-06-07T12:19:36.768Z,21.60
2019-06-07T12:22:24.962Z,21.50
2019-06-07T12:25:18.989Z,21.50
2019-06-07T12:28:03.562Z,21.60
2019-06-07T12:30:55.088Z,21.60
2019-06-07T12:33:42.254Z,21.70
2019-06-07T12:36:30.489Z,21.70
2019-06-07T12:39:20.078Z,21.80
2019-06-07T12:42:08.687Z,21.70
2019-06-07T12:44:57.073Z,21.80
2019-06-07T12:47:45.195Z,21.70
2019-06-07T12:50:42.805Z,21.60
2019-06-07T12:53:26.428Z,21.50
2019-06-07T12:56:14.039Z,21.50
2019-06-07T12:59:02.492Z,21.60
2019-06-07T13:01:51.026Z,21.60
2019-06-07T13:04:39.422Z,21.60
2019-06-07T13:07:28.001Z,21.50
2019-06-07T13:10:17.898Z,21.60
2019-06-07T13:13:06.705Z,21.50
2019-06-07T13:15:54.995Z,21.50
2019-06-07T13:18:43.421Z,21.50
2019-06-07T13:21:31.873Z,21.50
2019-06-07T13:24:20.936Z,21.50
2019-06-07T13:27:09.841Z,21.50
2019-06-07T13:30:09.134Z,21.50
2019-06-07T13:32:52.465Z,21.50
2019-06-07T13:35:40.718Z,21.50
2019-06-07T13:38:29.375Z,21.40
2019-06-07T13:41:32.637Z,21.40
2019-06-07T13:44:08.036Z,21.60
2019-06-07T13:46:56.391Z,21.80
2019-06-07T13:49:44.566Z,22.00
2019-06-07T13:52:32.805Z,22.10
2019-06-07T13:55:21.940Z,22.20
2019-06-07T13:58:10.446Z,22.20
2019-06-07T14:00:58.825Z,22.30
2019-06-07T14:03:46.891Z,22.40
2019-06-07T14:06:35.745Z,22.40
2019-06-07T14:09:25.244Z,22.40
2019-06-07T14:12:13.568Z,22.50
2019-06-07T14:15:01.936Z,22.50
2019-06-07T14:17:50.542Z,22.50
2019-06-07T14:20:38.698Z,22.60
2019-06-07T14:23:42.435Z,22.60
2019-06-07T14:26:16.738Z,22.60
2019-06-07T14:29:05.429Z,22.60
2019-06-07T14:31:53.594Z,22.70
2019-06-07T14:34:42.251Z,22.70
2019-06-07T14:37:32.937Z,22.70
2019-06-07T14:40:23.032Z,22.80
2019-06-07T14:43:11.604Z,22.80
2019-06-07T14:46:00.101Z,22.80
2019-06-07T14:48:48.228Z,22.80
2019-06-07T14:51:36.583Z,22.60
2019-06-07T14:54:24.917Z,22.20
2019-06-07T14:57:12.982Z,22.00
2019-06-07T15:00:10.484Z,21.90
2019-06-07T15:02:51.735Z,21.80
2019-06-07T15:05:40.587Z,21.70
2019-06-07T15:08:30.642Z,21.60
2019-06-07T15:11:19.004Z,21.60
2019-06-07T15:14:07.255Z,21.50
2019-06-07T15:16:55.448Z,21.50
2019-06-07T15:19:43.489Z,21.40
2019-06-07T15:22:32.184Z,21.40
2019-06-07T15:25:20.567Z,21.30
2019-06-07T15:28:08.765Z,21.20
2019-06-07T15:30:57.008Z,21.20
2019-06-07T15:33:45.345Z,21.10
2019-06-07T15:36:34.410Z,21.10
2019-06-07T15:39:34.903Z,21.10
2019-06-07T15:42:23.101Z,21.10
2019-06-07T15:45:11.300Z,21.10
2019-06-07T15:48:00.087Z,21.00
2019-06-07T15:50:48.385Z,20.90
2019-06-07T15:53:42.307Z,20.90
2019-06-07T15:56:28.821Z,20.90
2019-06-07T15:59:17.231Z,20.80
2019-06-07T16:02:05.771Z,20.80
2019-06-07T16:04:54.092Z,20.80
2019-06-07T16:07:43.150Z,20.80
2019-06-07T16:10:32.738Z,20.70
2019-06-07T16:13:21.174Z,20.70
2019-06-07T16:16:09.802Z,20.70
2019-06-07T16:18:59.083Z,20.60
2019-06-07T16:21:48.508Z,20.60
2019-06-07T16:24:37.687Z,20.60
2019-06-07T16:27:27.992Z,20.50
2019-06-07T16:30:18.458Z,20.50
2019-06-07T16:33:06.775Z,20.50
2019-06-07T16:35:55.277Z,20.50
2019-06-07T16:38:44.390Z,20.50
2019-06-07T16:41:32.905Z,20.50
2019-06-07T16:44:21.463Z,20.70
2019-06-07T16:47:10.478Z,21.00
2019-06-07T16:49:58.723Z,21.10
2019-06-07T16:52:48.451Z,21.20
2019-06-07T16:55:36.927Z,21.30
2019-06-07T16:58:25.358Z,21.40
2019-06-07T17:01:14.324Z,21.50
2019-06-07T17:04:03.132Z,21.60
2019-06-07T17:06:51.655Z,21.60
2019-06-07T17:09:40.349Z,21.70
2019-06-07T17:12:29.207Z,21.70
2019-06-07T17:15:19.398Z,21.80
2019-06-07T17:18:08.362Z,21.80
2019-06-07T17:20:56.649Z,21.80
2019-06-07T17:23:45.882Z,21.90
2019-06-07T17:26:34.358Z,21.90
2019-06-07T17:29:22.749Z,21.90
2019-06-07T17:32:11.136Z,21.90
2019-06-07T17:34:59.406Z,22.00
2019-06-07T17:37:49.575Z,22.00
2019-06-07T17:40:37.861Z,22.00
2019-06-07T17:43:26.606Z,22.00
2019-06-07T17:46:15.167Z,22.00
2019-06-07T17:49:03.725Z,22.00
2019-06-07T17:51:52.598Z,22.10
2019-06-07T17:54:41.779Z,22.10
2019-06-07T17:57:30.631Z,22.10
2019-06-07T18:00:29.040Z,22.10
2019-06-07T18:03:11.155Z,22.10
2019-06-07T18:06:01.917Z,22.10
2019-06-07T18:08:51.736Z,22.10
2019-06-07T18:11:40.484Z,22.10
2019-06-07T18:14:28.830Z,22.10
2019-06-07T18:17:17.427Z,22.10
2019-06-07T18:20:10.058Z,22.10
2019-06-07T18:22:58.386Z,22.10
2019-06-07T18:25:48.463Z,22.10
2019-06-07T18:28:37.167Z,22.10
2019-06-07T18:31:25.863Z,22.10
2019-06-07T18:34:14.531Z,22.10
2019-06-07T18:37:02.773Z,22.20
2019-06-07T18:39:51.245Z,22.20
2019-06-07T18:42:39.931Z,22.20
2019-06-07T18:45:28.299Z,22.20
2019-06-07T18:48:17.032Z,22.20
2019-06-07T18:51:05.458Z,22.20
2019-06-07T18:53:54.210Z,22.20
2019-06-07T18:56:42.950Z,22.20
2019-06-07T18:59:31.730Z,22.20
2019-06-07T19:02:20.374Z,22.20
2019-06-07T19:05:09.305Z,22.10
2019-06-07T19:07:59.885Z,22.20
2019-06-07T19:10:48.687Z,22.20
2019-06-07T19:13:37.243Z,22.20
2019-06-07T19:16:25.958Z,22.20
2019-06-07T19:19:14.446Z,22.20
2019-06-07T19:22:02.693Z,22.20
2019-06-07T19:24:52.106Z,22.20
2019-06-07T19:27:40.515Z,22.20
2019-06-07T19:30:28.792Z,22.20
2019-06-07T19:33:16.865Z,22.20
2019-06-07T19:36:05.554Z,22.20
2019-06-07T19:38:54.093Z,22.20
2019-06-07T19:41:42.925Z,22.20
2019-06-07T19:44:31.769Z,22.20
2019-06-07T19:47:20.559Z,22.20
2019-06-07T19:50:09.578Z,22.20
2019-06-07T19:52:59.129Z,22.20
2019-06-07T19:55:47.682Z,22.20
2019-06-07T19:58:36.292Z,22.20
2019-06-07T20:01:24.990Z,22.20
2019-06-07T20:04:13.502Z,22.20
2019-06-07T20:07:03.905Z,22.20
2019-06-07T20:09:51.640Z,22.20
2019-06-07T20:12:40.489Z,22.20
2019-06-07T20:15:29.764Z,22.20
2019-06-07T20:18:18.185Z,22.20
2019-06-07T20:21:06.531Z,22.10
2019-06-07T20:23:55.198Z,22.10
2019-06-07T20:26:43.927Z,22.10
2019-06-07T20:29:32.784Z,22.10
2019-06-07T20:32:21.112Z,22.10
2019-06-07T20:35:11.257Z,22.10
2019-06-07T20:38:01.089Z,22.10
2019-06-07T20:40:50.198Z,22.10
2019-06-07T20:43:38.715Z,22.10
2019-06-07T20:46:26.864Z,22.10
2019-06-07T20:49:15.282Z,22.10
2019-06-07T20:52:04.827Z,22.10
2019-06-07T20:54:54.002Z,22.10
2019-06-07T20:57:43.626Z,22.10
2019-06-07T21:00:32.360Z,22.00
2019-06-07T21:03:20.756Z,22.00
2019-06-07T21:06:09.961Z,22.00
2019-06-07T21:08:59.333Z,22.00
2019-06-07T21:11:48.215Z,22.00
2019-06-07T21:14:36.670Z,22.00
2019-06-07T21:17:25.098Z,22.00
2019-06-07T21:20:14.984Z,22.00
2019-06-07T21:23:04.708Z,22.00
2019-06-07T21:25:53.539Z,22.00
2019-06-07T21:28:41.679Z,22.00
2019-06-07T21:31:31.144Z,21.90
2019-06-07T21:34:19.736Z,21.90
2019-06-07T21:37:09.841Z,21.90
2019-06-07T21:39:58.765Z,21.90
2019-06-07T21:42:47.305Z,21.90
2019-06-07T21:45:36.595Z,21.90
2019-06-07T21:48:24.964Z,21.90
2019-06-07T21:51:13.087Z,21.90
2019-06-07T21:54:02.829Z,21.90
2019-06-07T21:56:52.189Z,21.90
2019-06-07T21:59:40.780Z,21.90
2019-06-07T22:02:29.147Z,21.90
2019-06-07T22:05:17.536Z,21.90
2019-06-07T22:08:08.166Z,21.90
2019-06-07T22:10:56.435Z,21.90
2019-06-07T22:13:44.864Z,21.90
2019-06-07T22:16:33.223Z,21.90
2019-06-07T22:19:21.432Z,21.80
2019-06-07T22:22:11.030Z,21.80
2019-06-07T22:24:59.637Z,21.80
2019-06-07T22:27:48.063Z,21.80
2019-06-07T22:30:37.066Z,21.80
2019-06-07T22:33:25.662Z,21.80
2019-06-07T22:36:15.911Z,21.80
2019-06-07T22:39:05.547Z,21.80
2019-06-07T22:41:53.721Z,21.80
2019-06-07T22:44:42.017Z,21.80
2019-06-07T22:47:30.358Z,21.70
2019-06-07T22:50:19.522Z,21.70
2019-06-07T22:53:07.637Z,21.70
2019-06-07T22:56:03.648Z,21.70
2019-06-07T22:58:52.019Z,21.70
2019-06-07T23:01:40.367Z,21.70
2019-06-07T23:04:30.130Z,21.70
2019-06-07T23:07:19.206Z,21.70
2019-06-07T23:10:09.012Z,21.70
2019-06-07T23:12:57.315Z,21.70
2019-06-07T23:15:45.721Z,21.70
2019-06-07T23:18:34.503Z,21.70
2019-06-07T23:21:23.550Z,21.60
2019-06-07T23:24:12.064Z,21.60
2019-06-07T23:27:00.350Z,21.60
2019-06-07T23:29:48.828Z,21.60
2019-06-07T23:32:38.022Z,21.60
2019-06-07T23:35:26.396Z,21.60
2019-06-07T23:38:14.978Z,21.60
2019-06-07T23:41:03.893Z,21.60
2019-06-07T23:43:52.503Z,21.60
2019-06-07T23:46:40.666Z,21.60
2019-06-07T23:49:29.025Z,21.60
2019-06-07T23:52:22.087Z,21.50
2019-06-07T23:55:11.860Z,21.50
2019-06-07T23:58:00.473Z,21.50
